sensor_id;sensor_type;location;lat;lon;timestamp;pressure;altitude;pressure_sealevel;temperature;humidity
78073;BME280;67281;48.770;11.440;2023-02-28T00:00:53;97870.59;;;13.21;39.06
78073;BME280;67281;48.770;11.440;2023-02-28T00:03:19;97871.44;;;13.21;39.34
78073;BME280;67281;48.770;11.440;2023-02-28T00:05:46;97871.44;;;13.21;39.72
78073;BME280;67281;48.770;11.440;2023-02-28T00:08:13;97869.66;;;13.22;39.36
78073;BME280;67281;48.770;11.440;2023-02-28T00:10:40;97870.50;;;13.22;38.98
78073;BME280;67281;48.770;11.440;2023-02-28T00:13:06;97864.41;;;13.22;39.33
78073;BME280;67281;48.770;11.440;2023-02-28T00:15:33;97863.56;;;13.21;39.14
78073;BME280;67281;48.770;11.440;2023-02-28T00:18:01;97859.13;;;13.22;39.04
78073;BME280;67281;48.770;11.440;2023-02-28T00:20:28;97858.28;;;13.21;38.96
78073;BME280;67281;48.770;11.440;2023-02-28T00:22:56;97850.28;;;13.23;39.31
78073;BME280;67281;48.770;11.440;2023-02-28T00:25:24;97852.19;;;13.21;39.73
78073;BME280;67281;48.770;11.440;2023-02-28T00:27:51;97853.13;;;13.20;39.73
78073;BME280;67281;48.770;11.440;2023-02-28T00:30:21;97851.34;;;13.20;39.07
78073;BME280;67281;48.770;11.440;2023-02-28T00:32:48;97839.97;;;13.20;39.51
78073;BME280;67281;48.770;11.440;2023-02-28T00:35:16;97842.50;;;13.21;39.33
78073;BME280;67281;48.770;11.440;2023-02-28T00:37:43;97846.19;;;13.19;39.69
78073;BME280;67281;48.770;11.440;2023-02-28T00:40:10;97839.13;;;13.19;39.68
78073;BME280;67281;48.770;11.440;2023-02-28T00:42:38;97835.66;;;13.19;39.37
78073;BME280;67281;48.770;11.440;2023-02-28T00:45:06;97845.25;;;13.20;39.51
78073;BME280;67281;48.770;11.440;2023-02-28T00:47:33;97840.94;;;13.19;39.50
78073;BME280;67281;48.770;11.440;2023-02-28T00:50:00;97839.25;;;13.18;39.35
78073;BME280;67281;48.770;11.440;2023-02-28T00:52:27;97840.94;;;13.19;39.24
78073;BME280;67281;48.770;11.440;2023-02-28T00:54:54;97830.59;;;13.15;39.13
78073;BME280;67281;48.770;11.440;2023-02-28T00:57:20;97835.78;;;13.17;39.70
78073;BME280;67281;48.770;11.440;2023-02-28T00:59:47;97831.47;;;13.16;39.62
78073;BME280;67281;48.770;11.440;2023-02-28T01:02:14;97832.38;;;13.15;39.70
78073;BME280;67281;48.770;11.440;2023-02-28T01:04:41;97833.22;;;13.15;39.03
78073;BME280;67281;48.770;11.440;2023-02-28T01:07:08;97834.09;;;13.16;39.33
78073;BME280;67281;48.770;11.440;2023-02-28T01:09:35;97829.75;;;13.15;39.44
78073;BME280;67281;48.770;11.440;2023-02-28T01:12:02;97824.41;;;13.17;39.37
78073;BME280;67281;48.770;11.440;2023-02-28T01:14:29;97824.59;;;13.13;39.80
78073;BME280;67281;48.770;11.440;2023-02-28T01:16:55;97834.09;;;13.16;39.71
78073;BME280;67281;48.770;11.440;2023-02-28T01:19:22;97822.81;;;13.14;39.09
78073;BME280;67281;48.770;11.440;2023-02-28T01:21:49;97833.31;;;13.14;39.51
78073;BME280;67281;48.770;11.440;2023-02-28T01:24:15;97817.75;;;13.11;39.27
78073;BME280;67281;48.770;11.440;2023-02-28T01:26:42;97825.66;;;13.11;39.19
78073;BME280;67281;48.770;11.440;2023-02-28T01:29:09;97829.00;;;13.13;39.30
78073;BME280;67281;48.770;11.440;2023-02-28T01:31:35;97823.75;;;13.13;39.74
78073;BME280;67281;48.770;11.440;2023-02-28T01:34:02;97826.38;;;13.13;39.83
78073;BME280;67281;48.770;11.440;2023-02-28T01:36:29;97826.50;;;13.11;39.79
78073;BME280;67281;48.770;11.440;2023-02-28T01:38:56;97823.75;;;13.13;39.40
78073;BME280;67281;48.770;11.440;2023-02-28T01:41:26;97826.38;;;13.13;39.60
78073;BME280;67281;48.770;11.440;2023-02-28T01:46:26;97811.66;;;13.10;39.55
78073;BME280;67281;48.770;11.440;2023-02-28T01:51:30;97817.88;;;13.09;39.75
78073;BME280;67281;48.770;11.440;2023-02-28T01:54:02;97819.56;;;13.10;39.56
78073;BME280;67281;48.770;11.440;2023-02-28T01:56:32;97817.03;;;13.09;39.67
78073;BME280;67281;48.770;11.440;2023-02-28T01:59:00;97820.59;;;13.08;39.83
78073;BME280;67281;48.770;11.440;2023-02-28T02:01:28;97821.44;;;13.08;39.22
78073;BME280;67281;48.770;11.440;2023-02-28T02:03:59;97818.81;;;13.08;39.17
78073;BME280;67281;48.770;11.440;2023-02-28T02:06:39;97818.09;;;13.06;39.55
78073;BME280;67281;48.770;11.440;2023-02-28T02:09:06;97813.88;;;13.04;39.89
78073;BME280;67281;48.770;11.440;2023-02-28T02:11:34;97813.78;;;13.05;39.64
78073;BME280;67281;48.770;11.440;2023-02-28T02:36:35;97817.69;;;13.00;40.01
78073;BME280;67281;48.770;11.440;2023-02-28T02:39:19;97809.69;;;13.01;39.27
78073;BME280;67281;48.770;11.440;2023-02-28T02:41:52;97801.69;;;13.03;39.40
78073;BME280;67281;48.770;11.440;2023-02-28T02:44:55;97807.16;;;13.00;39.22
78073;BME280;67281;48.770;11.440;2023-02-28T02:47:26;97812.41;;;13.00;39.46
78073;BME280;67281;48.770;11.440;2023-02-28T02:49:57;97813.38;;;12.99;39.59
78073;BME280;67281;48.770;11.440;2023-02-28T02:52:34;97808.22;;;12.97;39.30
78073;BME280;67281;48.770;11.440;2023-02-28T02:55:03;97808.22;;;12.97;39.43
78073;BME280;67281;48.770;11.440;2023-02-28T02:57:38;97813.25;;;13.00;39.43
78073;BME280;67281;48.770;11.440;2023-02-28T03:00:08;97808.94;;;12.99;39.96
78073;BME280;67281;48.770;11.440;2023-02-28T03:02:36;97803.69;;;12.99;39.68
78073;BME280;67281;48.770;11.440;2023-02-28T03:05:11;97810.84;;;12.97;39.60
78073;BME280;67281;48.770;11.440;2023-02-28T03:07:40;97802.94;;;12.97;39.70
78073;BME280;67281;48.770;11.440;2023-02-28T03:10:31;97802.31;;;12.94;39.35
78073;BME280;67281;48.770;11.440;2023-02-28T03:21:40;97805.06;;;12.92;39.95
78073;BME280;67281;48.770;11.440;2023-02-28T03:24:42;97804.13;;;12.93;39.44
78073;BME280;67281;48.770;11.440;2023-02-28T03:29:45;97799.81;;;12.92;39.98
78073;BME280;67281;48.770;11.440;2023-02-28T03:32:21;97805.28;;;12.89;39.61
78073;BME280;67281;48.770;11.440;2023-02-28T03:34:58;97801.69;;;12.90;39.82
78073;BME280;67281;48.770;11.440;2023-02-28T03:37:29;97801.69;;;12.90;40.03
78073;BME280;67281;48.770;11.440;2023-02-28T03:40:02;97800.03;;;12.89;39.63
78073;BME280;67281;48.770;11.440;2023-02-28T03:42:35;97795.59;;;12.90;39.69
78073;BME280;67281;48.770;11.440;2023-02-28T03:45:21;97798.44;;;12.87;39.30
78073;BME280;67281;48.770;11.440;2023-02-28T03:47:57;97808.84;;;12.88;39.37
78073;BME280;67281;48.770;11.440;2023-02-28T03:50:47;97811.38;;;12.90;39.56
78073;BME280;67281;48.770;11.440;2023-02-28T03:53:27;97804.53;;;12.87;39.74
78073;BME280;67281;48.770;11.440;2023-02-28T03:58:57;97810.03;;;12.84;40.14
78073;BME280;67281;48.770;11.440;2023-02-28T04:01:34;97805.72;;;12.83;39.46
78073;BME280;67281;48.770;11.440;2023-02-28T04:04:02;97802.88;;;12.86;39.60
78073;BME280;67281;48.770;11.440;2023-02-28T04:06:31;97806.66;;;12.82;40.03
78073;BME280;67281;48.770;11.440;2023-02-28T04:08:58;97808.44;;;12.81;39.71
78073;BME280;67281;48.770;11.440;2023-02-28T04:11:33;97804.13;;;12.80;39.37
78073;BME280;67281;48.770;11.440;2023-02-28T04:14:05;97803.28;;;12.80;40.02
78073;BME280;67281;48.770;11.440;2023-02-28T04:16:33;97813.91;;;12.78;39.24
78073;BME280;67281;48.770;11.440;2023-02-28T04:19:02;97813.06;;;12.78;40.08
78073;BME280;67281;48.770;11.440;2023-02-28T04:21:51;97824.44;;;12.78;40.13
78073;BME280;67281;48.770;11.440;2023-02-28T04:24:27;97819.28;;;12.77;39.67
78073;BME280;67281;48.770;11.440;2023-02-28T04:26:56;97820.13;;;12.77;39.38
78073;BME280;67281;48.770;11.440;2023-02-28T04:29:26;97815.81;;;12.76;39.99
78073;BME280;67281;48.770;11.440;2023-02-28T04:31:54;97823.59;;;12.78;39.89
78073;BME280;67281;48.770;11.440;2023-02-28T04:34:29;97826.31;;;12.76;40.01
78073;BME280;67281;48.770;11.440;2023-02-28T04:36:56;97823.06;;;12.73;39.96
78073;BME280;67281;48.770;11.440;2023-02-28T04:39:38;97830.00;;;12.74;39.49
78073;BME280;67281;48.770;11.440;2023-02-28T04:42:05;97824.75;;;12.74;39.52
78073;BME280;67281;48.770;11.440;2023-02-28T04:44:32;97822.34;;;12.71;40.02
78073;BME280;67281;48.770;11.440;2023-02-28T04:46:58;97824.97;;;12.71;39.89
78073;BME280;67281;48.770;11.440;2023-02-28T04:49:25;97818.88;;;12.70;40.00
78073;BME280;67281;48.770;11.440;2023-02-28T04:51:52;97818.75;;;12.72;39.67
78073;BME280;67281;48.770;11.440;2023-02-28T04:54:19;97821.38;;;12.72;39.30
78073;BME280;67281;48.770;11.440;2023-02-28T04:56:46;97814.44;;;12.71;39.65
78073;BME280;67281;48.770;11.440;2023-02-28T04:59:14;97819.91;;;12.68;39.39
78073;BME280;67281;48.770;11.440;2023-02-28T05:01:45;97826.97;;;12.67;39.97
78073;BME280;67281;48.770;11.440;2023-02-28T05:04:12;97823.50;;;12.67;39.63
78073;BME280;67281;48.770;11.440;2023-02-28T05:06:39;97828.75;;;12.67;39.90
78073;BME280;67281;48.770;11.440;2023-02-28T05:09:06;97833.28;;;12.65;39.81
78073;BME280;67281;48.770;11.440;2023-02-28T05:11:33;97836.75;;;12.65;39.65
78073;BME280;67281;48.770;11.440;2023-02-28T05:14:10;97838.44;;;12.66;39.62
78073;BME280;67281;48.770;11.440;2023-02-28T05:16:37;97846.31;;;12.66;39.36
78073;BME280;67281;48.770;11.440;2023-02-28T05:19:04;97846.53;;;12.63;39.72
78073;BME280;67281;48.770;11.440;2023-02-28T05:24:07;97844.88;;;12.62;39.61
78073;BME280;67281;48.770;11.440;2023-02-28T05:26:36;97843.06;;;12.63;39.30
78073;BME280;67281;48.770;11.440;2023-02-28T05:29:04;97852.88;;;12.61;39.76
78073;BME280;67281;48.770;11.440;2023-02-28T05:31:31;97852.88;;;12.61;39.35
78073;BME280;67281;48.770;11.440;2023-02-28T05:33:59;97842.56;;;12.58;39.55
78073;BME280;67281;48.770;11.440;2023-02-28T05:36:26;97853.06;;;12.58;39.71
78073;BME280;67281;48.770;11.440;2023-02-28T05:38:53;97853.91;;;12.58;39.98
78073;BME280;67281;48.770;11.440;2023-02-28T05:41:20;97850.56;;;12.56;39.64
78073;BME280;67281;48.770;11.440;2023-02-28T05:43:47;97849.72;;;12.56;40.00
78073;BME280;67281;48.770;11.440;2023-02-28T05:46:14;97847.19;;;12.54;39.92
78073;BME280;67281;48.770;11.440;2023-02-28T05:48:43;97854.97;;;12.56;39.32
78073;BME280;67281;48.770;11.440;2023-02-28T05:51:12;97849.81;;;12.54;39.28
78073;BME280;67281;48.770;11.440;2023-02-28T05:53:38;97859.50;;;12.54;39.49
78073;BME280;67281;48.770;11.440;2023-02-28T05:56:05;97856.84;;;12.54;39.76
78073;BME280;67281;48.770;11.440;2023-02-28T05:58:32;97853.38;;;12.53;39.48
78073;BME280;67281;48.770;11.440;2023-02-28T06:00:59;97855.19;;;12.53;39.14
78073;BME280;67281;48.770;11.440;2023-02-28T06:03:27;97862.22;;;12.52;39.54
78073;BME280;67281;48.770;11.440;2023-02-28T06:05:54;97865.69;;;12.53;39.57
78073;BME280;67281;48.770;11.440;2023-02-28T06:08:20;97855.19;;;12.53;39.53
78073;BME280;67281;48.770;11.440;2023-02-28T06:10:47;97863.16;;;12.51;39.33
78073;BME280;67281;48.770;11.440;2023-02-28T06:13:14;97860.63;;;12.49;39.92
78073;BME280;67281;48.770;11.440;2023-02-28T06:15:41;97859.81;;;12.49;39.74
78073;BME280;67281;48.770;11.440;2023-02-28T06:18:07;97865.06;;;12.49;39.73
78073;BME280;67281;48.770;11.440;2023-02-28T06:20:34;97865.78;;;12.51;39.29
78073;BME280;67281;48.770;11.440;2023-02-28T06:23:03;97865.78;;;12.51;39.28
78073;BME280;67281;48.770;11.440;2023-02-28T06:25:29;97866.75;;;12.50;39.16
78073;BME280;67281;48.770;11.440;2023-02-28T06:27:56;97870.22;;;12.50;39.39
78073;BME280;67281;48.770;11.440;2023-02-28T06:30:23;97868.31;;;12.53;39.28
78073;BME280;67281;48.770;11.440;2023-02-28T06:32:51;97863.16;;;12.51;39.71
78073;BME280;67281;48.770;11.440;2023-02-28T06:35:18;97867.38;;;12.54;39.20
78073;BME280;67281;48.770;11.440;2023-02-28T06:37:45;97867.38;;;12.54;39.20
78073;BME280;67281;48.770;11.440;2023-02-28T06:40:13;97873.38;;;12.56;39.17
78073;BME280;67281;48.770;11.440;2023-02-28T06:42:40;97868.22;;;12.54;39.52
78073;BME280;67281;48.770;11.440;2023-02-28T06:45:08;97876.84;;;12.56;39.26
78073;BME280;67281;48.770;11.440;2023-02-28T06:47:40;97864.53;;;12.57;38.82
78073;BME280;67281;48.770;11.440;2023-02-28T06:50:10;97875.06;;;12.57;39.21
78073;BME280;67281;48.770;11.440;2023-02-28T06:52:37;97872.31;;;12.58;38.82
78073;BME280;67281;48.770;11.440;2023-02-28T06:55:05;97873.06;;;12.60;39.42
78073;BME280;67281;48.770;11.440;2023-02-28T06:57:34;97870.31;;;12.62;38.71
78073;BME280;67281;48.770;11.440;2023-02-28T07:00:05;97878.91;;;12.64;38.70
78073;BME280;67281;48.770;11.440;2023-02-28T07:02:35;97883.22;;;12.65;38.84
78073;BME280;67281;48.770;11.440;2023-02-28T07:05:01;97870.81;;;12.67;39.07
78073;BME280;67281;48.770;11.440;2023-02-28T07:07:28;97872.50;;;12.68;39.04
78073;BME280;67281;48.770;11.440;2023-02-28T07:09:55;97870.81;;;12.67;39.20
78073;BME280;67281;48.770;11.440;2023-02-28T07:12:22;97873.25;;;12.70;39.32
78073;BME280;67281;48.770;11.440;2023-02-28T07:14:49;97879.22;;;12.72;38.72
78073;BME280;67281;48.770;11.440;2023-02-28T07:17:16;97879.13;;;12.73;38.89
78073;BME280;67281;48.770;11.440;2023-02-28T07:19:43;97886.81;;;12.76;39.26
78073;BME280;67281;48.770;11.440;2023-02-28T07:22:09;97887.53;;;12.78;39.08
78073;BME280;67281;48.770;11.440;2023-02-28T07:24:36;97879.56;;;12.80;38.64
78073;BME280;67281;48.770;11.440;2023-02-28T07:27:03;97889.03;;;12.82;38.79
78073;BME280;67281;48.770;11.440;2023-02-28T07:29:29;97893.34;;;12.83;38.59
78073;BME280;67281;48.770;11.440;2023-02-28T07:31:56;97894.91;;;12.86;38.57
78073;BME280;67281;48.770;11.440;2023-02-28T07:34:23;97894.91;;;12.86;39.14
78073;BME280;67281;48.770;11.440;2023-02-28T07:36:53;97891.22;;;12.89;38.94
78073;BME280;67281;48.770;11.440;2023-02-28T07:39:21;97904.28;;;12.90;38.89
78073;BME280;67281;48.770;11.440;2023-02-28T07:41:48;97898.81;;;12.93;38.65
78073;BME280;67281;48.770;11.440;2023-02-28T07:44:15;97906.69;;;12.93;38.91
78073;BME280;67281;48.770;11.440;2023-02-28T07:46:42;97898.81;;;12.93;38.36
78073;BME280;67281;48.770;11.440;2023-02-28T07:49:08;97904.81;;;12.95;38.34
78073;BME280;67281;48.770;11.440;2023-02-28T07:51:35;97911.00;;;12.94;38.59
78073;BME280;67281;48.770;11.440;2023-02-28T07:54:02;97912.69;;;12.95;38.77
78073;BME280;67281;48.770;11.440;2023-02-28T07:56:29;97918.69;;;12.97;38.39
78073;BME280;67281;48.770;11.440;2023-02-28T07:58:56;97913.44;;;12.97;38.51
78073;BME280;67281;48.770;11.440;2023-02-28T08:01:22;97911.44;;;13.01;38.15
78073;BME280;67281;48.770;11.440;2023-02-28T08:03:49;97912.38;;;13.00;38.32
78073;BME280;67281;48.770;11.440;2023-02-28T08:06:19;97907.00;;;13.01;38.44
78073;BME280;67281;48.770;11.440;2023-02-28T08:08:46;97913.75;;;13.05;38.61
78073;BME280;67281;48.770;11.440;2023-02-28T08:11:14;97912.91;;;13.05;38.12
78073;BME280;67281;48.770;11.440;2023-02-28T08:13:42;97911.94;;;13.06;37.94
78073;BME280;67281;48.770;11.440;2023-02-28T08:16:12;97918.91;;;13.07;38.71
78073;BME280;67281;48.770;11.440;2023-02-28T08:18:41;97919.63;;;13.09;38.03
78073;BME280;67281;48.770;11.440;2023-02-28T08:21:09;97914.25;;;13.10;37.92
78073;BME280;67281;48.770;11.440;2023-02-28T08:23:36;97914.06;;;13.13;38.47
78073;BME280;67281;48.770;11.440;2023-02-28T08:26:03;97911.25;;;13.17;37.86
78073;BME280;67281;48.770;11.440;2023-02-28T08:28:30;97910.28;;;13.18;38.37
78073;BME280;67281;48.770;11.440;2023-02-28T08:30:58;97917.03;;;13.22;38.18
78073;BME280;67281;48.770;11.440;2023-02-28T08:33:25;97906.41;;;13.23;38.06
78073;BME280;67281;48.770;11.440;2023-02-28T08:35:56;97915.03;;;13.25;37.68
78073;BME280;67281;48.770;11.440;2023-02-28T08:38:25;97919.22;;;13.28;37.72
78073;BME280;67281;48.770;11.440;2023-02-28T08:41:00;97918.28;;;13.29;37.66
78073;BME280;67281;48.770;11.440;2023-02-28T08:43:28;97926.06;;;13.30;37.62
78073;BME280;67281;48.770;11.440;2023-02-28T08:45:55;97918.16;;;13.30;37.94
78073;BME280;67281;48.770;11.440;2023-02-28T08:48:28;97918.22;;;13.41;38.96
78073;BME280;67281;48.770;11.440;2023-02-28T08:53:32;97919.06;;;13.42;38.11
78073;BME280;67281;48.770;11.440;2023-02-28T08:56:02;97931.59;;;13.38;38.81
78073;BME280;67281;48.770;11.440;2023-02-28T08:58:29;97924.66;;;13.37;38.42
78073;BME280;67281;48.770;11.440;2023-02-28T09:00:57;97927.19;;;13.39;37.99
78073;BME280;67281;48.770;11.440;2023-02-28T09:03:24;97937.38;;;13.43;37.90
78073;BME280;67281;48.770;11.440;2023-02-28T09:05:58;97939.91;;;13.45;38.38
78073;BME280;67281;48.770;11.440;2023-02-28T09:08:28;97932.00;;;13.45;37.69
78073;BME280;67281;48.770;11.440;2023-02-28T09:10:55;97923.28;;;13.44;38.13
78073;BME280;67281;48.770;11.440;2023-02-28T09:13:25;97940.53;;;13.48;37.85
78073;BME280;67281;48.770;11.440;2023-02-28T09:15:53;97936.97;;;13.49;38.07
78073;BME280;67281;48.770;11.440;2023-02-28T09:18:20;97935.06;;;13.52;37.63
78073;BME280;67281;48.770;11.440;2023-02-28T09:20:47;97928.84;;;13.53;37.98
78073;BME280;67281;48.770;11.440;2023-02-28T09:23:14;97941.91;;;13.54;37.65
78073;BME280;67281;48.770;11.440;2023-02-28T09:25:48;97946.09;;;13.57;37.80
78073;BME280;67281;48.770;11.440;2023-02-28T09:28:16;97942.53;;;13.58;38.12
78073;BME280;67281;48.770;11.440;2023-02-28T09:30:45;97940.50;;;13.61;37.91
78073;BME280;67281;48.770;11.440;2023-02-28T09:33:13;97935.25;;;13.61;38.02
78073;BME280;67281;48.770;11.440;2023-02-28T09:35:40;97932.50;;;13.63;37.39
78073;BME280;67281;48.770;11.440;2023-02-28T09:38:06;97937.56;;;13.66;37.93
78073;BME280;67281;48.770;11.440;2023-02-28T09:40:49;97934.59;;;13.70;37.95
78073;BME280;67281;48.770;11.440;2023-02-28T09:43:17;97940.59;;;13.72;37.47
78073;BME280;67281;48.770;11.440;2023-02-28T09:45:56;97943.75;;;13.77;37.79
78073;BME280;67281;48.770;11.440;2023-02-28T09:48:31;97939.22;;;13.79;37.40
78073;BME280;67281;48.770;11.440;2023-02-28T09:51:03;97940.78;;;13.82;37.83
78073;BME280;67281;48.770;11.440;2023-02-28T09:53:33;97932.75;;;13.84;37.24
78073;BME280;67281;48.770;11.440;2023-02-28T09:56:39;97940.22;;;13.90;37.85
78073;BME280;67281;48.770;11.440;2023-02-28T10:10:00;97938.38;;;14.03;37.44
78073;BME280;67281;48.770;11.440;2023-02-28T10:12:29;97933.84;;;14.05;37.23
78073;BME280;67281;48.770;11.440;2023-02-28T10:14:58;97941.63;;;14.06;37.11
78073;BME280;67281;48.770;11.440;2023-02-28T10:17:32;97937.81;;;14.10;36.90
78073;BME280;67281;48.770;11.440;2023-02-28T10:20:23;97942.00;;;14.13;37.23
78073;BME280;67281;48.770;11.440;2023-02-28T10:25:45;97938.91;;;14.19;36.93
78073;BME280;67281;48.770;11.440;2023-02-28T10:28:16;97950.19;;;14.21;37.20
78073;BME280;67281;48.770;11.440;2023-02-28T10:30:47;97942.16;;;14.23;36.85
78073;BME280;67281;48.770;11.440;2023-02-28T10:33:28;97945.41;;;14.26;36.91
78073;BME280;67281;48.770;11.440;2023-02-28T10:35:57;97943.41;;;14.30;37.02
78073;BME280;67281;48.770;11.440;2023-02-28T10:38:27;97943.28;;;14.31;36.49
78073;BME280;67281;48.770;11.440;2023-02-28T10:41:13;97948.34;;;14.34;37.06
78073;BME280;67281;48.770;11.440;2023-02-28T10:43:43;97950.84;;;14.36;36.69
78073;BME280;67281;48.770;11.440;2023-02-28T10:46:16;97951.59;;;14.38;36.05
78073;BME280;67281;48.770;11.440;2023-02-28T10:49:03;97941.69;;;14.41;36.54
78073;BME280;67281;48.770;11.440;2023-02-28T10:51:39;97944.94;;;14.45;36.07
78073;BME280;67281;48.770;11.440;2023-02-28T10:54:16;97944.81;;;14.46;36.22
78073;BME280;67281;48.770;11.440;2023-02-28T10:56:43;97949.03;;;14.49;36.35
78073;BME280;67281;48.770;11.440;2023-02-28T10:59:35;97949.53;;;14.54;36.41
78073;BME280;67281;48.770;11.440;2023-02-28T11:02:30;97931.91;;;14.55;36.43
78073;BME280;67281;48.770;11.440;2023-02-28T11:05:02;97945.69;;;14.58;36.37
78073;BME280;67281;48.770;11.440;2023-02-28T11:07:28;97950.63;;;14.63;36.41
78073;BME280;67281;48.770;11.440;2023-02-28T11:10:06;97950.41;;;14.66;36.61
78073;BME280;67281;48.770;11.440;2023-02-28T11:12:39;97944.78;;;14.70;36.55
78073;BME280;67281;48.770;11.440;2023-02-28T11:18:29;97949.38;;;14.79;36.54
78073;BME280;67281;48.770;11.440;2023-02-28T11:20:59;97949.97;;;14.83;36.14
78073;BME280;67281;48.770;11.440;2023-02-28T11:23:30;97948.75;;;14.87;36.01
78073;BME280;67281;48.770;11.440;2023-02-28T11:26:01;97947.56;;;14.91;36.20
78073;BME280;67281;48.770;11.440;2023-02-28T11:28:32;97938.34;;;14.97;35.76
78073;BME280;67281;48.770;11.440;2023-02-28T11:31:19;97933.44;;;15.03;35.70
78073;BME280;67281;48.770;11.440;2023-02-28T11:33:52;97946.28;;;15.08;35.96
78073;BME280;67281;48.770;11.440;2023-02-28T11:36:29;97939.81;;;15.12;35.87
78073;BME280;67281;48.770;11.440;2023-02-28T11:39:15;97943.66;;;15.19;35.99
78073;BME280;67281;48.770;11.440;2023-02-28T11:46:18;97942.81;;;15.30;35.94
78073;BME280;67281;48.770;11.440;2023-02-28T11:52:53;97936.81;;;15.39;35.95
78073;BME280;67281;48.770;11.440;2023-02-28T11:55:36;97936.34;;;15.34;36.18
78073;BME280;67281;48.770;11.440;2023-02-28T12:01:26;97921.56;;;15.42;36.18
78073;BME280;67281;48.770;11.440;2023-02-28T12:10:41;97925.56;;;15.59;35.64
78073;BME280;67281;48.770;11.440;2023-02-28T12:13:48;97935.59;;;15.65;35.01
78073;BME280;67281;48.770;11.440;2023-02-28T12:19:52;97925.03;;;15.76;35.23
78073;BME280;67281;48.770;11.440;2023-02-28T12:28:34;97913.97;;;15.83;34.98
78073;BME280;67281;48.770;11.440;2023-02-28T12:31:14;97918.88;;;15.87;35.28
78073;BME280;67281;48.770;11.440;2023-02-28T12:33:47;97907.47;;;15.87;34.91
78073;BME280;67281;48.770;11.440;2023-02-28T12:36:17;97906.38;;;15.89;35.03
78073;BME280;67281;48.770;11.440;2023-02-28T12:44:49;97904.81;;;15.87;35.03
78073;BME280;67281;48.770;11.440;2023-02-28T12:47:51;97913.00;;;15.84;35.00
78073;BME280;67281;48.770;11.440;2023-02-28T12:55:42;97909.94;;;15.56;35.36
78073;BME280;67281;48.770;11.440;2023-02-28T12:58:54;97905.13;;;15.50;36.22
78073;BME280;67281;48.770;11.440;2023-02-28T13:01:46;97897.56;;;15.45;35.92
78073;BME280;67281;48.770;11.440;2023-02-28T13:10:37;97902.50;;;15.39;36.23
78073;BME280;67281;48.770;11.440;2023-02-28T13:13:05;97897.44;;;15.36;36.15
78073;BME280;67281;48.770;11.440;2023-02-28T13:15:33;97898.16;;;15.38;36.50
78073;BME280;67281;48.770;11.440;2023-02-28T13:18:36;97894.81;;;15.36;36.59
78073;BME280;67281;48.770;11.440;2023-02-28T13:21:07;97891.81;;;15.40;36.02
78073;BME280;67281;48.770;11.440;2023-02-28T13:29:21;97892.88;;;15.49;35.87
78073;BME280;67281;48.770;11.440;2023-02-28T13:34:37;97885.28;;;15.67;35.61
78073;BME280;67281;48.770;11.440;2023-02-28T13:39:53;97879.50;;;15.73;35.36
78073;BME280;67281;48.770;11.440;2023-02-28T13:42:35;97881.19;;;15.74;35.51
78073;BME280;67281;48.770;11.440;2023-02-28T13:45:27;97888.50;;;15.82;36.03
78073;BME280;67281;48.770;11.440;2023-02-28T13:48:00;97888.84;;;15.88;35.50
78073;BME280;67281;48.770;11.440;2023-02-28T13:50:35;97894.56;;;16.04;35.15
78073;BME280;67281;48.770;11.440;2023-02-28T13:56:19;97882.94;;;16.28;35.14
78073;BME280;67281;48.770;11.440;2023-02-28T14:05:15;97884.50;;;16.30;35.14
78073;BME280;67281;48.770;11.440;2023-02-28T14:07:47;97879.13;;;16.21;34.96
78073;BME280;67281;48.770;11.440;2023-02-28T14:10:41;97888.16;;;16.18;34.79
78073;BME280;67281;48.770;11.440;2023-02-28T14:13:42;97884.78;;;16.16;35.46
78073;BME280;67281;48.770;11.440;2023-02-28T14:16:16;97886.84;;;16.13;35.61
78073;BME280;67281;48.770;11.440;2023-02-28T14:18:56;97889.13;;;16.17;35.24
78073;BME280;67281;48.770;11.440;2023-02-28T14:21:28;97879.59;;;16.26;34.80
78073;BME280;67281;48.770;11.440;2023-02-28T14:26:57;97878.63;;;16.27;34.51
78073;BME280;67281;48.770;11.440;2023-02-28T14:32:25;97868.50;;;16.32;35.20
78073;BME280;67281;48.770;11.440;2023-02-28T14:35:02;97879.63;;;16.35;35.17
78073;BME280;67281;48.770;11.440;2023-02-28T14:37:41;97876.84;;;16.37;34.85
78073;BME280;67281;48.770;11.440;2023-02-28T14:40:24;97870.47;;;16.39;34.68
78073;BME280;67281;48.770;11.440;2023-02-28T14:42:58;97871.91;;;16.43;35.08
78073;BME280;67281;48.770;11.440;2023-02-28T14:45:31;97873.69;;;16.43;34.30
78073;BME280;67281;48.770;11.440;2023-02-28T14:48:00;97870.94;;;16.44;34.56
78073;BME280;67281;48.770;11.440;2023-02-28T14:50:34;97868.03;;;16.48;34.94
78073;BME280;67281;48.770;11.440;2023-02-28T14:53:03;97874.16;;;16.48;34.39
78073;BME280;67281;48.770;11.440;2023-02-28T14:55:32;97876.66;;;16.50;34.96
78073;BME280;67281;48.770;11.440;2023-02-28T14:58:02;97875.97;;;16.48;34.79
78073;BME280;67281;48.770;11.440;2023-02-28T15:00:33;97861.75;;;16.49;34.68
78073;BME280;67281;48.770;11.440;2023-02-28T15:03:01;97868.88;;;16.48;34.92
78073;BME280;67281;48.770;11.440;2023-02-28T15:05:33;97874.28;;;16.47;34.75
78073;BME280;67281;48.770;11.440;2023-02-28T15:10:33;97881.50;;;16.44;34.78
78073;BME280;67281;48.770;11.440;2023-02-28T15:13:04;97875.50;;;16.42;35.09
78073;BME280;67281;48.770;11.440;2023-02-28T15:15:43;97875.63;;;16.41;34.52
78073;BME280;67281;48.770;11.440;2023-02-28T15:18:31;97883.25;;;16.34;34.62
78073;BME280;67281;48.770;11.440;2023-02-28T15:21:03;97889.19;;;16.27;34.95
78073;BME280;67281;48.770;11.440;2023-02-28T15:23:34;97893.19;;;16.21;35.17
78073;BME280;67281;48.770;11.440;2023-02-28T15:26:02;97883.56;;;16.20;35.00
78073;BME280;67281;48.770;11.440;2023-02-28T15:28:33;97889.25;;;16.16;34.96
78073;BME280;67281;48.770;11.440;2023-02-28T15:31:25;97892.50;;;16.08;35.86